Fenton, MO (63026)

3:35 AM CDT on October 17, 2019 (GMT -0500)
Delk Weather Winter Valley Subdivision | | Change Station
Active Advisory: Flood Warning

Elev 545 ft 38.49 °N, 90.43 °W | Updated 26 seconds ago

Clear
Clear
41.5 °F
Feels Like 42 °F
N
0
Wind Variable Wind from West
Gusts 0.0 mph

Today
High -- | Low -- °F
--% Chance of Precip.
Yesterday
High -- | Low -- °F
Precip. -- in
Pressure 30.11 in
Visibility 10.0 miles
Clouds Clear
Windchill 42 °F
Dew Point 41 °F
Humidity 99%
Rainfall 0.00 in
Snow Depth Not available.
7:12 AM 6:21 PM
Waning Gibbous, 89% visible
METAR KSUS 170754Z AUTO 00000KT 10SM CLR 04/03 A3011 RMK AO2 SLP196 T00390028
Pressure 30.11 in
Visibility 10.0 miles
Clouds Clear
Windchill 42 °F
Dew Point 41 °F
Humidity 99%
Rainfall 0.00 in
Snow Depth Not available.
7:12 AM 6:21 PM
Waning Gibbous, 89% visible
METAR KSUS 170754Z AUTO 00000KT 10SM CLR 04/03 A3011 RMK AO2 SLP196 T00390028

Get Your Daily Forecast Email!

Thanks for signing up!

Be on the lookout for a verification email in your inbox.

You'll start receiving severe weather alerts in your inbox..

×

10-Day Weather Forecast

Almanac

Astronomy

Oct. 17, 2019 Rise Set
Actual Time
Civil Twilight
Nautical Twilight
Astronomical Twilight
Moon
Length of Visible Light
Length of Day
Tomorrow will be .
, % of the Moon is Illuminated

Today's Extremes

State Highs State Lows

Community

WunderPhotos

Category 6

Welcome to Category 6. This is the collective home for Weather Underground's featured writeups by Dr. Jeff Masters (right), Bob Henson (left), Chris Burt, and other regular contributors.

Nearby

Air Quality

  Air Quality AQ Index Pollutant
Not available.

Snow Depth

Station Depth Elevation

Earthquake Activity

City Distance Mag. Time & Date
Minimum magnitude displayed is 2.5.

Coastal Water Temperatures

Place Temperature

Stations

Nearby Weather Stations

Station Location Temp. Windchill Dew Point Humidity Wind Precip. Elev Updated Type
                   

Watches & Warnings

Flood Warning
Issued: 8:36 PM CDT Oct. 16, 2019 – National Weather Service

The Flood Warning continues for
the Meramec river near Arnold
* until further notice.
* At 8:00 PM Wednesday the stage was 27.2 feet.
* Flood stage is 24.0 feet.
* Minor flooding is forecast.
* The river is forecast to continue falling to a stage of 26.7 feet
by Friday morning.

                   Fld latest 7 a.M. Forecast
location stg obs stg 10/17 10/18 10/19 10/20 10/21

Meramec river
Arnold 24.0 27.16 27.0 26.7 26.5 26.3 25.8




Lat... Lon 3848 9043 3848 9039 3846 9032 3841 9034
     3845 9043